sensor_id;sensor_type;location;lat;lon;timestamp;P1;durP1;ratioP1;P2;durP2;ratioP2
40116;SDS011;25829;50.228;18.936;2022-09-17T00:00:00;7.77;;;5.83;;
40116;SDS011;25829;50.228;18.936;2022-09-17T00:03:01;8.17;;;6.23;;
40116;SDS011;25829;50.228;18.936;2022-09-17T00:06:05;10.40;;;5.97;;
40116;SDS011;25829;50.228;18.936;2022-09-17T00:09:08;10.63;;;7.00;;
40116;SDS011;25829;50.228;18.936;2022-09-17T00:12:09;11.53;;;5.97;;
40116;SDS011;25829;50.228;18.936;2022-09-17T00:15:10;8.40;;;5.90;;
40116;SDS011;25829;50.228;18.936;2022-09-17T00:18:12;8.30;;;5.53;;
40116;SDS011;25829;50.228;18.936;2022-09-17T00:21:16;10.70;;;5.70;;
40116;SDS011;25829;50.228;18.936;2022-09-17T00:24:18;9.80;;;5.90;;
40116;SDS011;25829;50.228;18.936;2022-09-17T00:27:20;10.10;;;6.60;;
40116;SDS011;25829;50.228;18.936;2022-09-17T00:30:21;12.70;;;7.03;;
40116;SDS011;25829;50.228;18.936;2022-09-17T00:33:21;8.87;;;6.17;;
40116;SDS011;25829;50.228;18.936;2022-09-17T00:36:22;10.33;;;6.57;;
40116;SDS011;25829;50.228;18.936;2022-09-17T00:39:23;9.37;;;6.30;;
40116;SDS011;25829;50.228;18.936;2022-09-17T00:42:24;9.10;;;6.10;;
40116;SDS011;25829;50.228;18.936;2022-09-17T00:45:25;7.13;;;5.37;;
40116;SDS011;25829;50.228;18.936;2022-09-17T00:48:27;9.10;;;5.93;;
40116;SDS011;25829;50.228;18.936;2022-09-17T00:51:31;7.67;;;4.87;;
40116;SDS011;25829;50.228;18.936;2022-09-17T00:54:35;8.27;;;5.03;;
40116;SDS011;25829;50.228;18.936;2022-09-17T00:57:39;6.13;;;5.00;;
40116;SDS011;25829;50.228;18.936;2022-09-17T01:00:41;9.40;;;5.33;;
40116;SDS011;25829;50.228;18.936;2022-09-17T01:03:42;6.53;;;4.97;;
40116;SDS011;25829;50.228;18.936;2022-09-17T01:10:02;6.77;;;4.60;;
40116;SDS011;25829;50.228;18.936;2022-09-17T01:36:18;8.77;;;5.17;;
40116;SDS011;25829;50.228;18.936;2022-09-17T01:39:43;8.23;;;4.83;;
40116;SDS011;25829;50.228;18.936;2022-09-17T01:42:57;8.27;;;5.60;;
40116;SDS011;25829;50.228;18.936;2022-09-17T01:46:18;6.23;;;5.07;;
40116;SDS011;25829;50.228;18.936;2022-09-17T01:49:23;8.50;;;5.37;;
40116;SDS011;25829;50.228;18.936;2022-09-17T01:52:25;8.17;;;5.20;;
40116;SDS011;25829;50.228;18.936;2022-09-17T01:55:29;11.00;;;5.40;;
40116;SDS011;25829;50.228;18.936;2022-09-17T01:58:33;7.20;;;5.07;;
40116;SDS011;25829;50.228;18.936;2022-09-17T02:01:40;8.00;;;5.00;;
40116;SDS011;25829;50.228;18.936;2022-09-17T02:04:47;10.13;;;5.90;;
40116;SDS011;25829;50.228;18.936;2022-09-17T02:08:01;9.17;;;5.97;;
40116;SDS011;25829;50.228;18.936;2022-09-17T02:11:09;12.83;;;5.80;;
40116;SDS011;25829;50.228;18.936;2022-09-17T02:14:34;8.77;;;5.93;;
40116;SDS011;25829;50.228;18.936;2022-09-17T02:17:41;8.20;;;5.43;;
40116;SDS011;25829;50.228;18.936;2022-09-17T02:20:53;8.33;;;5.67;;
40116;SDS011;25829;50.228;18.936;2022-09-17T02:30:43;8.27;;;4.70;;
40116;SDS011;25829;50.228;18.936;2022-09-17T02:33:46;7.00;;;4.93;;
40116;SDS011;25829;50.228;18.936;2022-09-17T02:36:50;10.07;;;4.83;;
40116;SDS011;25829;50.228;18.936;2022-09-17T02:39:52;7.97;;;4.87;;
40116;SDS011;25829;50.228;18.936;2022-09-17T02:46:32;9.93;;;5.10;;
40116;SDS011;25829;50.228;18.936;2022-09-17T02:49:50;8.53;;;6.07;;
40116;SDS011;25829;50.228;18.936;2022-09-17T02:56:48;8.60;;;4.50;;
40116;SDS011;25829;50.228;18.936;2022-09-17T03:06:20;7.93;;;3.93;;
40116;SDS011;25829;50.228;18.936;2022-09-17T03:09:21;5.83;;;4.20;;
40116;SDS011;25829;50.228;18.936;2022-09-17T03:12:22;9.47;;;4.57;;
40116;SDS011;25829;50.228;18.936;2022-09-17T03:15:24;5.77;;;4.20;;
40116;SDS011;25829;50.228;18.936;2022-09-17T03:18:25;7.90;;;4.10;;
40116;SDS011;25829;50.228;18.936;2022-09-17T03:21:25;7.30;;;4.67;;
40116;SDS011;25829;50.228;18.936;2022-09-17T03:24:26;6.83;;;4.53;;
40116;SDS011;25829;50.228;18.936;2022-09-17T03:27:27;7.40;;;5.03;;
40116;SDS011;25829;50.228;18.936;2022-09-17T03:30:28;8.67;;;5.00;;
40116;SDS011;25829;50.228;18.936;2022-09-17T03:33:28;6.10;;;4.57;;
40116;SDS011;25829;50.228;18.936;2022-09-17T03:36:30;6.87;;;5.03;;
40116;SDS011;25829;50.228;18.936;2022-09-17T03:39:30;8.70;;;5.07;;
40116;SDS011;25829;50.228;18.936;2022-09-17T03:42:31;8.23;;;5.30;;
40116;SDS011;25829;50.228;18.936;2022-09-17T03:45:32;8.17;;;5.57;;
40116;SDS011;25829;50.228;18.936;2022-09-17T03:48:33;6.63;;;4.77;;
40116;SDS011;25829;50.228;18.936;2022-09-17T03:51:36;6.57;;;5.43;;
40116;SDS011;25829;50.228;18.936;2022-09-17T03:54:37;7.20;;;4.93;;
40116;SDS011;25829;50.228;18.936;2022-09-17T03:57:37;6.87;;;5.70;;
40116;SDS011;25829;50.228;18.936;2022-09-17T04:00:38;9.37;;;5.80;;
40116;SDS011;25829;50.228;18.936;2022-09-17T04:03:39;7.83;;;5.43;;
40116;SDS011;25829;50.228;18.936;2022-09-17T04:06:43;8.13;;;5.97;;
40116;SDS011;25829;50.228;18.936;2022-09-17T04:09:44;7.93;;;5.67;;
40116;SDS011;25829;50.228;18.936;2022-09-17T04:12:44;8.33;;;5.77;;
40116;SDS011;25829;50.228;18.936;2022-09-17T04:15:48;8.87;;;5.90;;
40116;SDS011;25829;50.228;18.936;2022-09-17T04:18:49;12.43;;;8.67;;
40116;SDS011;25829;50.228;18.936;2022-09-17T04:21:49;12.50;;;9.90;;
40116;SDS011;25829;50.228;18.936;2022-09-17T04:24:50;8.63;;;5.97;;
40116;SDS011;25829;50.228;18.936;2022-09-17T04:27:51;7.93;;;5.83;;
40116;SDS011;25829;50.228;18.936;2022-09-17T04:30:51;7.23;;;5.93;;
40116;SDS011;25829;50.228;18.936;2022-09-17T04:33:52;7.00;;;5.80;;
40116;SDS011;25829;50.228;18.936;2022-09-17T04:36:53;7.53;;;5.47;;
40116;SDS011;25829;50.228;18.936;2022-09-17T04:39:54;8.63;;;5.93;;
40116;SDS011;25829;50.228;18.936;2022-09-17T04:42:55;7.50;;;5.70;;
40116;SDS011;25829;50.228;18.936;2022-09-17T04:46:02;6.93;;;5.77;;
40116;SDS011;25829;50.228;18.936;2022-09-17T04:49:03;8.27;;;6.37;;
40116;SDS011;25829;50.228;18.936;2022-09-17T04:52:04;8.07;;;6.53;;
40116;SDS011;25829;50.228;18.936;2022-09-17T04:55:05;8.27;;;6.00;;
40116;SDS011;25829;50.228;18.936;2022-09-17T04:58:06;6.30;;;5.33;;
40116;SDS011;25829;50.228;18.936;2022-09-17T05:01:06;9.47;;;6.10;;
40116;SDS011;25829;50.228;18.936;2022-09-17T05:04:07;7.40;;;6.60;;
40116;SDS011;25829;50.228;18.936;2022-09-17T05:07:08;7.77;;;6.03;;
40116;SDS011;25829;50.228;18.936;2022-09-17T05:10:10;7.10;;;5.77;;
40116;SDS011;25829;50.228;18.936;2022-09-17T05:13:12;6.83;;;5.20;;
40116;SDS011;25829;50.228;18.936;2022-09-17T05:16:13;9.17;;;6.00;;
40116;SDS011;25829;50.228;18.936;2022-09-17T05:19:14;5.63;;;5.07;;
40116;SDS011;25829;50.228;18.936;2022-09-17T05:22:15;8.47;;;4.90;;
40116;SDS011;25829;50.228;18.936;2022-09-17T05:25:16;7.90;;;5.10;;
40116;SDS011;25829;50.228;18.936;2022-09-17T05:28:19;8.03;;;5.50;;
40116;SDS011;25829;50.228;18.936;2022-09-17T05:31:20;7.13;;;5.10;;
40116;SDS011;25829;50.228;18.936;2022-09-17T05:34:20;8.43;;;5.67;;
40116;SDS011;25829;50.228;18.936;2022-09-17T05:37:21;7.30;;;5.37;;
40116;SDS011;25829;50.228;18.936;2022-09-17T05:40:22;8.03;;;5.63;;
40116;SDS011;25829;50.228;18.936;2022-09-17T05:43:22;9.93;;;5.47;;
40116;SDS011;25829;50.228;18.936;2022-09-17T05:46:23;5.40;;;4.90;;
40116;SDS011;25829;50.228;18.936;2022-09-17T05:49:24;5.60;;;5.00;;
40116;SDS011;25829;50.228;18.936;2022-09-17T05:52:25;6.70;;;4.43;;
40116;SDS011;25829;50.228;18.936;2022-09-17T05:55:27;5.93;;;4.03;;
40116;SDS011;25829;50.228;18.936;2022-09-17T05:58:28;6.33;;;4.00;;
40116;SDS011;25829;50.228;18.936;2022-09-17T06:01:31;8.00;;;4.10;;
40116;SDS011;25829;50.228;18.936;2022-09-17T06:04:32;5.10;;;4.10;;
40116;SDS011;25829;50.228;18.936;2022-09-17T06:07:36;4.83;;;3.63;;
40116;SDS011;25829;50.228;18.936;2022-09-17T06:10:38;4.43;;;3.90;;
40116;SDS011;25829;50.228;18.936;2022-09-17T06:13:39;8.10;;;3.27;;
40116;SDS011;25829;50.228;18.936;2022-09-17T06:16:39;4.27;;;3.50;;
40116;SDS011;25829;50.228;18.936;2022-09-17T06:19:40;4.10;;;3.70;;
40116;SDS011;25829;50.228;18.936;2022-09-17T06:22:41;4.37;;;3.33;;
40116;SDS011;25829;50.228;18.936;2022-09-17T06:25:42;4.63;;;3.07;;
40116;SDS011;25829;50.228;18.936;2022-09-17T06:28:43;3.70;;;3.30;;
40116;SDS011;25829;50.228;18.936;2022-09-17T06:31:44;4.10;;;3.27;;
40116;SDS011;25829;50.228;18.936;2022-09-17T06:34:45;3.43;;;2.80;;
40116;SDS011;25829;50.228;18.936;2022-09-17T06:37:46;4.70;;;3.17;;
40116;SDS011;25829;50.228;18.936;2022-09-17T06:40:50;4.65;;;2.88;;
40116;SDS011;25829;50.228;18.936;2022-09-17T06:43:51;3.20;;;2.83;;
40116;SDS011;25829;50.228;18.936;2022-09-17T06:46:56;3.92;;;2.67;;
40116;SDS011;25829;50.228;18.936;2022-09-17T06:50:07;5.05;;;3.40;;
40116;SDS011;25829;50.228;18.936;2022-09-17T06:53:20;4.88;;;3.33;;
40116;SDS011;25829;50.228;18.936;2022-09-17T06:56:25;4.25;;;3.35;;
40116;SDS011;25829;50.228;18.936;2022-09-17T06:59:26;5.22;;;3.45;;
40116;SDS011;25829;50.228;18.936;2022-09-17T07:02:27;5.15;;;3.55;;
40116;SDS011;25829;50.228;18.936;2022-09-17T07:05:29;4.82;;;3.65;;
40116;SDS011;25829;50.228;18.936;2022-09-17T07:08:32;4.45;;;3.88;;
40116;SDS011;25829;50.228;18.936;2022-09-17T07:11:35;5.25;;;3.75;;
40116;SDS011;25829;50.228;18.936;2022-09-17T07:14:36;9.68;;;3.50;;
40116;SDS011;25829;50.228;18.936;2022-09-17T07:17:37;4.15;;;3.20;;
40116;SDS011;25829;50.228;18.936;2022-09-17T07:20:42;5.47;;;3.58;;
40116;SDS011;25829;50.228;18.936;2022-09-17T07:23:43;4.10;;;3.05;;
40116;SDS011;25829;50.228;18.936;2022-09-17T07:26:44;5.03;;;3.30;;
40116;SDS011;25829;50.228;18.936;2022-09-17T07:29:45;4.03;;;3.30;;
40116;SDS011;25829;50.228;18.936;2022-09-17T07:32:46;3.38;;;3.03;;
40116;SDS011;25829;50.228;18.936;2022-09-17T07:35:54;3.55;;;2.80;;
40116;SDS011;25829;50.228;18.936;2022-09-17T07:38:59;4.20;;;3.17;;
40116;SDS011;25829;50.228;18.936;2022-09-17T07:42:00;3.55;;;2.80;;
40116;SDS011;25829;50.228;18.936;2022-09-17T07:45:00;4.68;;;2.80;;
40116;SDS011;25829;50.228;18.936;2022-09-17T07:48:01;5.03;;;3.08;;
40116;SDS011;25829;50.228;18.936;2022-09-17T07:51:02;3.47;;;2.75;;
40116;SDS011;25829;50.228;18.936;2022-09-17T07:54:03;4.40;;;3.00;;
40116;SDS011;25829;50.228;18.936;2022-09-17T07:57:05;4.82;;;3.40;;
40116;SDS011;25829;50.228;18.936;2022-09-17T08:00:06;3.95;;;2.95;;
40116;SDS011;25829;50.228;18.936;2022-09-17T08:03:11;4.00;;;2.78;;
40116;SDS011;25829;50.228;18.936;2022-09-17T08:06:13;4.07;;;2.80;;
40116;SDS011;25829;50.228;18.936;2022-09-17T08:09:16;3.83;;;2.78;;
40116;SDS011;25829;50.228;18.936;2022-09-17T08:12:17;4.47;;;2.30;;
40116;SDS011;25829;50.228;18.936;2022-09-17T08:15:18;3.30;;;2.25;;
40116;SDS011;25829;50.228;18.936;2022-09-17T08:18:19;5.97;;;2.80;;
40116;SDS011;25829;50.228;18.936;2022-09-17T08:21:20;5.05;;;2.10;;
40116;SDS011;25829;50.228;18.936;2022-09-17T08:24:21;4.28;;;1.95;;
40116;SDS011;25829;50.228;18.936;2022-09-17T08:27:21;3.25;;;1.85;;
40116;SDS011;25829;50.228;18.936;2022-09-17T08:30:22;3.22;;;2.22;;
40116;SDS011;25829;50.228;18.936;2022-09-17T08:33:23;2.78;;;2.08;;
40116;SDS011;25829;50.228;18.936;2022-09-17T08:36:24;2.47;;;1.90;;
40116;SDS011;25829;50.228;18.936;2022-09-17T08:39:28;2.30;;;2.10;;
40116;SDS011;25829;50.228;18.936;2022-09-17T08:45:38;1.60;;;1.50;;
40116;SDS011;25829;50.228;18.936;2022-09-17T08:48:44;2.42;;;1.65;;
40116;SDS011;25829;50.228;18.936;2022-09-17T08:55:50;3.22;;;1.90;;
40116;SDS011;25829;50.228;18.936;2022-09-17T08:59:06;3.63;;;1.92;;
40116;SDS011;25829;50.228;18.936;2022-09-17T09:08:45;2.55;;;1.85;;
40116;SDS011;25829;50.228;18.936;2022-09-17T09:11:52;2.72;;;1.73;;
40116;SDS011;25829;50.228;18.936;2022-09-17T09:18:23;3.05;;;1.70;;
40116;SDS011;25829;50.228;18.936;2022-09-17T09:21:34;1.90;;;1.58;;
40116;SDS011;25829;50.228;18.936;2022-09-17T09:24:44;4.13;;;1.77;;
40116;SDS011;25829;50.228;18.936;2022-09-17T09:34:25;2.97;;;1.80;;
40116;SDS011;25829;50.228;18.936;2022-09-17T09:37:32;3.33;;;1.92;;
40116;SDS011;25829;50.228;18.936;2022-09-17T09:44:10;3.10;;;2.00;;
40116;SDS011;25829;50.228;18.936;2022-09-17T09:57:08;2.92;;;1.90;;
40116;SDS011;25829;50.228;18.936;2022-09-17T10:00:28;3.35;;;1.90;;
40116;SDS011;25829;50.228;18.936;2022-09-17T10:03:40;2.10;;;1.77;;
40116;SDS011;25829;50.228;18.936;2022-09-17T10:06:43;2.53;;;2.10;;
40116;SDS011;25829;50.228;18.936;2022-09-17T10:09:45;2.75;;;2.10;;
40116;SDS011;25829;50.228;18.936;2022-09-17T10:12:46;3.17;;;2.50;;
40116;SDS011;25829;50.228;18.936;2022-09-17T10:15:47;2.47;;;2.28;;
40116;SDS011;25829;50.228;18.936;2022-09-17T10:18:48;2.65;;;2.00;;
40116;SDS011;25829;50.228;18.936;2022-09-17T10:22:23;3.20;;;2.15;;
40116;SDS011;25829;50.228;18.936;2022-09-17T10:34:58;4.20;;;2.20;;
40116;SDS011;25829;50.228;18.936;2022-09-17T10:38:30;3.45;;;2.47;;
40116;SDS011;25829;50.228;18.936;2022-09-17T10:41:36;2.35;;;2.10;;
40116;SDS011;25829;50.228;18.936;2022-09-17T10:47:58;2.30;;;2.10;;
40116;SDS011;25829;50.228;18.936;2022-09-17T10:50:59;2.60;;;2.13;;
40116;SDS011;25829;50.228;18.936;2022-09-17T10:57:13;2.60;;;2.17;;
40116;SDS011;25829;50.228;18.936;2022-09-17T11:00:41;2.50;;;2.10;;
40116;SDS011;25829;50.228;18.936;2022-09-17T11:04:11;2.45;;;2.25;;
40116;SDS011;25829;50.228;18.936;2022-09-17T11:14:04;4.55;;;2.10;;
40116;SDS011;25829;50.228;18.936;2022-09-17T11:17:20;3.38;;;2.20;;
40116;SDS011;25829;50.228;18.936;2022-09-17T11:40:52;3.05;;;2.25;;
40116;SDS011;25829;50.228;18.936;2022-09-17T11:47:12;3.00;;;2.30;;
40116;SDS011;25829;50.228;18.936;2022-09-17T11:50:23;4.10;;;2.55;;
40116;SDS011;25829;50.228;18.936;2022-09-17T11:53:34;2.20;;;2.00;;
40116;SDS011;25829;50.228;18.936;2022-09-17T11:56:40;3.20;;;2.50;;
40116;SDS011;25829;50.228;18.936;2022-09-17T12:06:12;2.80;;;2.50;;
40116;SDS011;25829;50.228;18.936;2022-09-17T12:09:21;5.00;;;2.30;;
40116;SDS011;25829;50.228;18.936;2022-09-17T12:12:25;4.22;;;2.22;;
40116;SDS011;25829;50.228;18.936;2022-09-17T12:15:29;3.97;;;3.13;;
40116;SDS011;25829;50.228;18.936;2022-09-17T12:21:44;5.95;;;2.70;;
40116;SDS011;25829;50.228;18.936;2022-09-17T12:24:51;3.58;;;2.78;;
40116;SDS011;25829;50.228;18.936;2022-09-17T12:27:58;4.60;;;3.13;;
40116;SDS011;25829;50.228;18.936;2022-09-17T12:31:09;3.47;;;2.88;;
40116;SDS011;25829;50.228;18.936;2022-09-17T12:34:25;4.10;;;3.63;;
40116;SDS011;25829;50.228;18.936;2022-09-17T12:41:28;3.10;;;2.80;;
40116;SDS011;25829;50.228;18.936;2022-09-17T12:58:54;3.28;;;2.60;;
40116;SDS011;25829;50.228;18.936;2022-09-17T13:02:21;3.53;;;2.50;;
40116;SDS011;25829;50.228;18.936;2022-09-17T13:05:29;2.85;;;2.55;;
40116;SDS011;25829;50.228;18.936;2022-09-17T13:09:03;2.53;;;2.33;;
40116;SDS011;25829;50.228;18.936;2022-09-17T13:22:04;3.63;;;2.58;;
40116;SDS011;25829;50.228;18.936;2022-09-17T13:25:10;3.35;;;2.10;;
40116;SDS011;25829;50.228;18.936;2022-09-17T13:28:13;3.40;;;2.88;;
40116;SDS011;25829;50.228;18.936;2022-09-17T13:34:50;3.53;;;2.65;;
40116;SDS011;25829;50.228;18.936;2022-09-17T13:40:53;3.97;;;3.45;;
40116;SDS011;25829;50.228;18.936;2022-09-17T13:44:20;4.47;;;3.28;;
40116;SDS011;25829;50.228;18.936;2022-09-17T13:53:34;5.15;;;3.35;;
40116;SDS011;25829;50.228;18.936;2022-09-17T13:56:42;4.35;;;3.10;;
40116;SDS011;25829;50.228;18.936;2022-09-17T13:59:52;3.88;;;3.35;;
40116;SDS011;25829;50.228;18.936;2022-09-17T14:02:55;3.10;;;2.75;;
40116;SDS011;25829;50.228;18.936;2022-09-17T14:09:45;3.47;;;2.92;;
40116;SDS011;25829;50.228;18.936;2022-09-17T14:12:54;3.40;;;2.78;;
40116;SDS011;25829;50.228;18.936;2022-09-17T14:15:58;4.57;;;2.90;;
40116;SDS011;25829;50.228;18.936;2022-09-17T14:22:26;3.72;;;3.38;;
40116;SDS011;25829;50.228;18.936;2022-09-17T14:25:31;3.28;;;2.85;;
40116;SDS011;25829;50.228;18.936;2022-09-17T14:28:54;3.63;;;3.33;;
40116;SDS011;25829;50.228;18.936;2022-09-17T14:32:07;3.67;;;3.20;;
40116;SDS011;25829;50.228;18.936;2022-09-17T14:35:16;3.45;;;3.15;;
40116;SDS011;25829;50.228;18.936;2022-09-17T14:41:43;3.50;;;3.20;;
40116;SDS011;25829;50.228;18.936;2022-09-17T14:45:06;4.07;;;3.33;;
40116;SDS011;25829;50.228;18.936;2022-09-17T14:51:37;3.80;;;3.28;;
40116;SDS011;25829;50.228;18.936;2022-09-17T14:54:38;3.92;;;3.25;;
40116;SDS011;25829;50.228;18.936;2022-09-17T14:57:44;4.05;;;3.05;;
40116;SDS011;25829;50.228;18.936;2022-09-17T15:00:51;3.38;;;3.08;;
40116;SDS011;25829;50.228;18.936;2022-09-17T15:07:12;4.65;;;3.20;;
40116;SDS011;25829;50.228;18.936;2022-09-17T15:10:19;5.78;;;3.88;;
40116;SDS011;25829;50.228;18.936;2022-09-17T15:16:35;4.45;;;3.40;;
40116;SDS011;25829;50.228;18.936;2022-09-17T15:19:39;3.92;;;3.42;;
40116;SDS011;25829;50.228;18.936;2022-09-17T15:22:43;3.90;;;3.47;;
40116;SDS011;25829;50.228;18.936;2022-09-17T15:25:47;5.07;;;3.60;;
40116;SDS011;25829;50.228;18.936;2022-09-17T15:28:53;5.43;;;4.18;;
40116;SDS011;25829;50.228;18.936;2022-09-17T15:31:56;4.55;;;4.00;;
40116;SDS011;25829;50.228;18.936;2022-09-17T15:38:20;7.35;;;5.57;;
40116;SDS011;25829;50.228;18.936;2022-09-17T15:41:30;8.10;;;5.28;;
40116;SDS011;25829;50.228;18.936;2022-09-17T15:44:32;7.97;;;5.18;;
40116;SDS011;25829;50.228;18.936;2022-09-17T15:47:49;7.50;;;5.20;;
40116;SDS011;25829;50.228;18.936;2022-09-17T15:50:53;6.75;;;5.15;;
40116;SDS011;25829;50.228;18.936;2022-09-17T15:53:56;6.72;;;4.65;;
40116;SDS011;25829;50.228;18.936;2022-09-17T15:56:59;8.13;;;4.75;;
40116;SDS011;25829;50.228;18.936;2022-09-17T16:00:04;6.22;;;4.57;;
40116;SDS011;25829;50.228;18.936;2022-09-17T16:07:29;8.45;;;6.15;;
40116;SDS011;25829;50.228;18.936;2022-09-17T16:10:08;8.27;;;5.88;;
40116;SDS011;25829;50.228;18.936;2022-09-17T16:13:10;7.35;;;5.32;;
40116;SDS011;25829;50.228;18.936;2022-09-17T16:16:14;7.53;;;4.88;;
40116;SDS011;25829;50.228;18.936;2022-09-17T16:19:17;8.27;;;5.22;;
40116;SDS011;25829;50.228;18.936;2022-09-17T16:22:17;9.93;;;4.72;;
40116;SDS011;25829;50.228;18.936;2022-09-17T16:25:20;10.38;;;5.88;;
40116;SDS011;25829;50.228;18.936;2022-09-17T16:28:24;12.82;;;6.25;;
40116;SDS011;25829;50.228;18.936;2022-09-17T16:31:25;8.88;;;5.72;;
40116;SDS011;25829;50.228;18.936;2022-09-17T16:34:27;10.52;;;5.47;;
40116;SDS011;25829;50.228;18.936;2022-09-17T16:37:27;10.07;;;5.82;;
40116;SDS011;25829;50.228;18.936;2022-09-17T16:40:28;7.18;;;5.05;;
40116;SDS011;25829;50.228;18.936;2022-09-17T16:43:29;8.52;;;4.90;;
40116;SDS011;25829;50.228;18.936;2022-09-17T16:46:30;8.68;;;4.82;;
40116;SDS011;25829;50.228;18.936;2022-09-17T16:49:30;7.88;;;6.20;;
40116;SDS011;25829;50.228;18.936;2022-09-17T16:52:31;6.93;;;5.88;;
40116;SDS011;25829;50.228;18.936;2022-09-17T16:55:33;11.55;;;6.90;;
40116;SDS011;25829;50.228;18.936;2022-09-17T16:58:33;8.25;;;6.38;;
40116;SDS011;25829;50.228;18.936;2022-09-17T17:01:35;10.52;;;6.88;;
40116;SDS011;25829;50.228;18.936;2022-09-17T17:04:39;16.25;;;8.40;;
40116;SDS011;25829;50.228;18.936;2022-09-17T17:07:40;13.30;;;7.97;;
40116;SDS011;25829;50.228;18.936;2022-09-17T17:10:40;12.45;;;9.00;;
40116;SDS011;25829;50.228;18.936;2022-09-17T17:13:44;10.43;;;7.78;;
40116;SDS011;25829;50.228;18.936;2022-09-17T17:16:47;10.50;;;7.28;;
40116;SDS011;25829;50.228;18.936;2022-09-17T17:19:48;8.90;;;7.22;;
40116;SDS011;25829;50.228;18.936;2022-09-17T17:22:49;8.35;;;6.30;;
40116;SDS011;25829;50.228;18.936;2022-09-17T17:25:55;8.18;;;6.28;;
40116;SDS011;25829;50.228;18.936;2022-09-17T17:28:56;7.55;;;6.30;;
40116;SDS011;25829;50.228;18.936;2022-09-17T17:31:59;6.95;;;5.88;;
40116;SDS011;25829;50.228;18.936;2022-09-17T17:35:01;7.45;;;6.00;;
40116;SDS011;25829;50.228;18.936;2022-09-17T17:38:03;8.75;;;6.90;;
40116;SDS011;25829;50.228;18.936;2022-09-17T17:41:08;10.63;;;7.63;;
40116;SDS011;25829;50.228;18.936;2022-09-17T17:44:20;7.72;;;6.43;;
40116;SDS011;25829;50.228;18.936;2022-09-17T17:47:21;8.05;;;7.00;;
40116;SDS011;25829;50.228;18.936;2022-09-17T17:50:21;10.45;;;7.38;;
40116;SDS011;25829;50.228;18.936;2022-09-17T17:53:22;11.35;;;8.68;;
40116;SDS011;25829;50.228;18.936;2022-09-17T17:56:26;12.30;;;10.07;;
40116;SDS011;25829;50.228;18.936;2022-09-17T17:59:27;21.55;;;17.27;;
40116;SDS011;25829;50.228;18.936;2022-09-17T18:02:28;15.27;;;10.95;;
40116;SDS011;25829;50.228;18.936;2022-09-17T18:05:29;29.80;;;23.00;;
40116;SDS011;25829;50.228;18.936;2022-09-17T18:08:33;25.83;;;20.80;;
40116;SDS011;25829;50.228;18.936;2022-09-17T18:11:42;22.90;;;18.70;;
40116;SDS011;25829;50.228;18.936;2022-09-17T18:14:53;25.02;;;19.00;;
40116;SDS011;25829;50.228;18.936;2022-09-17T18:17:54;25.23;;;15.57;;
40116;SDS011;25829;50.228;18.936;2022-09-17T18:21:17;21.60;;;14.20;;
40116;SDS011;25829;50.228;18.936;2022-09-17T18:24:20;11.73;;;9.55;;
40116;SDS011;25829;50.228;18.936;2022-09-17T18:27:20;12.60;;;9.57;;
40116;SDS011;25829;50.228;18.936;2022-09-17T18:30:21;10.73;;;8.13;;
40116;SDS011;25829;50.228;18.936;2022-09-17T18:33:23;9.25;;;6.90;;
40116;SDS011;25829;50.228;18.936;2022-09-17T18:36:27;7.47;;;6.20;;
40116;SDS011;25829;50.228;18.936;2022-09-17T18:39:29;7.15;;;5.70;;
40116;SDS011;25829;50.228;18.936;2022-09-17T18:42:29;9.45;;;5.20;;
40116;SDS011;25829;50.228;18.936;2022-09-17T18:45:30;8.27;;;5.55;;
40116;SDS011;25829;50.228;18.936;2022-09-17T18:48:31;6.28;;;5.55;;
40116;SDS011;25829;50.228;18.936;2022-09-17T18:51:32;6.15;;;5.07;;
40116;SDS011;25829;50.228;18.936;2022-09-17T18:54:33;6.68;;;5.10;;
40116;SDS011;25829;50.228;18.936;2022-09-17T18:57:34;5.78;;;5.10;;
40116;SDS011;25829;50.228;18.936;2022-09-17T19:00:35;6.78;;;5.13;;
40116;SDS011;25829;50.228;18.936;2022-09-17T19:03:40;5.57;;;4.72;;
40116;SDS011;25829;50.228;18.936;2022-09-17T19:06:41;5.90;;;4.68;;
40116;SDS011;25829;50.228;18.936;2022-09-17T19:09:41;5.28;;;4.65;;
40116;SDS011;25829;50.228;18.936;2022-09-17T19:12:42;7.57;;;5.82;;
40116;SDS011;25829;50.228;18.936;2022-09-17T19:15:43;6.57;;;5.00;;
40116;SDS011;25829;50.228;18.936;2022-09-17T19:18:44;7.18;;;5.90;;
40116;SDS011;25829;50.228;18.936;2022-09-17T19:21:45;7.10;;;5.30;;
40116;SDS011;25829;50.228;18.936;2022-09-17T19:24:48;6.57;;;4.80;;
40116;SDS011;25829;50.228;18.936;2022-09-17T19:27:49;5.95;;;4.47;;
40116;SDS011;25829;50.228;18.936;2022-09-17T19:30:53;5.50;;;4.68;;
40116;SDS011;25829;50.228;18.936;2022-09-17T19:33:54;5.57;;;4.43;;
40116;SDS011;25829;50.228;18.936;2022-09-17T19:36:56;6.65;;;4.80;;
40116;SDS011;25829;50.228;18.936;2022-09-17T19:39:56;6.68;;;4.63;;
40116;SDS011;25829;50.228;18.936;2022-09-17T19:42:57;5.32;;;3.97;;
40116;SDS011;25829;50.228;18.936;2022-09-17T19:46:01;4.30;;;3.90;;
40116;SDS011;25829;50.228;18.936;2022-09-17T19:49:09;6.40;;;3.50;;
40116;SDS011;25829;50.228;18.936;2022-09-17T19:52:10;4.25;;;3.80;;
40116;SDS011;25829;50.228;18.936;2022-09-17T19:55:11;4.93;;;3.28;;
40116;SDS011;25829;50.228;18.936;2022-09-17T19:58:12;4.22;;;2.80;;
40116;SDS011;25829;50.228;18.936;2022-09-17T20:01:14;3.83;;;3.42;;
40116;SDS011;25829;50.228;18.936;2022-09-17T20:04:15;4.05;;;2.90;;
40116;SDS011;25829;50.228;18.936;2022-09-17T20:07:19;3.28;;;2.78;;
40116;SDS011;25829;50.228;18.936;2022-09-17T20:10:20;3.37;;;2.63;;
40116;SDS011;25829;50.228;18.936;2022-09-17T20:13:21;3.85;;;1.90;;
40116;SDS011;25829;50.228;18.936;2022-09-17T20:16:22;3.33;;;2.33;;
40116;SDS011;25829;50.228;18.936;2022-09-17T20:19:23;4.13;;;2.00;;
40116;SDS011;25829;50.228;18.936;2022-09-17T20:22:24;3.20;;;2.00;;
40116;SDS011;25829;50.228;18.936;2022-09-17T20:25:25;3.97;;;1.90;;
40116;SDS011;25829;50.228;18.936;2022-09-17T20:28:26;2.28;;;1.83;;
40116;SDS011;25829;50.228;18.936;2022-09-17T20:31:27;2.33;;;1.80;;
40116;SDS011;25829;50.228;18.936;2022-09-17T20:34:29;2.97;;;1.90;;
40116;SDS011;25829;50.228;18.936;2022-09-17T20:37:30;5.65;;;2.08;;
40116;SDS011;25829;50.228;18.936;2022-09-17T20:40:30;4.68;;;1.42;;
40116;SDS011;25829;50.228;18.936;2022-09-17T20:43:32;3.67;;;2.22;;
40116;SDS011;25829;50.228;18.936;2022-09-17T20:46:33;4.80;;;1.90;;
40116;SDS011;25829;50.228;18.936;2022-09-17T20:49:34;2.55;;;1.80;;
40116;SDS011;25829;50.228;18.936;2022-09-17T20:52:35;2.67;;;1.90;;
40116;SDS011;25829;50.228;18.936;2022-09-17T20:55:36;2.78;;;1.98;;
40116;SDS011;25829;50.228;18.936;2022-09-17T20:58:37;2.20;;;1.73;;
40116;SDS011;25829;50.228;18.936;2022-09-17T21:01:45;2.30;;;1.92;;
40116;SDS011;25829;50.228;18.936;2022-09-17T21:04:48;2.35;;;1.73;;
40116;SDS011;25829;50.228;18.936;2022-09-17T21:07:49;2.40;;;1.60;;
40116;SDS011;25829;50.228;18.936;2022-09-17T21:10:50;3.30;;;1.93;;
40116;SDS011;25829;50.228;18.936;2022-09-17T21:13:51;1.77;;;1.60;;
40116;SDS011;25829;50.228;18.936;2022-09-17T21:16:52;2.88;;;1.70;;
40116;SDS011;25829;50.228;18.936;2022-09-17T21:19:53;4.07;;;1.77;;
40116;SDS011;25829;50.228;18.936;2022-09-17T21:22:54;2.00;;;1.80;;
40116;SDS011;25829;50.228;18.936;2022-09-17T21:26:28;3.00;;;1.73;;
40116;SDS011;25829;50.228;18.936;2022-09-17T21:29:23;2.00;;;1.60;;
40116;SDS011;25829;50.228;18.936;2022-09-17T21:32:23;7.13;;;2.37;;
40116;SDS011;25829;50.228;18.936;2022-09-17T21:35:24;2.25;;;1.60;;
40116;SDS011;25829;50.228;18.936;2022-09-17T21:38:29;2.45;;;1.60;;